Flight Track Log - Related Links

Times and Time Zones

All times are in EST time to prevent confusion due to time zone crossing. See the N400PU flight status page for this flight to view local times or setup timezone preferences in your user account.

Time Position Orientation Groundspeed Altitude Reporting Facility
EST Latitude Longitude Course Direction KTS MPH feet Rate Location/Type
Thu 11:19:23 PM 42.0186 -93.6053 67° East 171 197 1,800  Level Minneapolis Center
Thu 11:20:11 PM 42.0383 -93.5417 67° East 238 274 4,200 2,732 Climbing Minneapolis Center
Thu 11:21:15 PM 42.0086 -93.4772 122° Southeast 243 280 6,900 2,832 Climbing Minneapolis Center
Thu 11:22:16 PM 41.9844 -93.3864 110° East 255 293 10,100 3,000 Climbing Minneapolis Center
Thu 11:23:17 PM 41.9539 -93.2650 109° East 288 331 13,000 2,656 Climbing Minneapolis Center
Thu 11:24:18 PM 41.9275 -93.1586 108° East 312 359 15,500 2,410 Climbing Minneapolis Center
Thu 11:25:19 PM 41.8983 -93.0450 109° East 322 371 17,900 2,380 Climbing Minneapolis Center
Thu 11:26:19 PM 41.8686 -92.9289 109° East 327 376 20,300 2,231 Climbing Minneapolis Center
Thu 11:27:20 PM 41.8378 -92.8100 109° East 334 384 22,400 1,967 Climbing Minneapolis Center
Thu 11:28:21 PM 41.8047 -92.6822 109° East 344 396 24,300 1,820 Climbing Minneapolis Center
Thu 11:29:22 PM 41.7711 -92.5564 110° East 354 407 26,100 1,623 Climbing Minneapolis Center
Thu 11:30:23 PM 41.7369 -92.4278 110° East 363 418 27,600 1,339 Climbing Minneapolis Center
Thu 11:31:23 PM 41.7022 -92.2950 109° East 373 429 28,800 1,289 Climbing Minneapolis Center
Thu 11:32:24 PM 41.6878 -92.1133 96° East 411 473 30,200 1,308 Climbing Minneapolis Center
Thu 11:33:36 PM 41.6714 -91.9242 97° East 409 471 31,700 1,455 Climbing Chicago Center
Thu 11:34:36 PM 41.6622 -91.7708 95° East 420 483 33,400 1,650 Climbing Chicago Center
Thu 11:35:36 PM 41.6508 -91.6147 96° East 414 476 35,000 1,400 Climbing Chicago Center
Thu 11:36:36 PM 41.6389 -91.4697 96° East 409 471 36,200 1,000 Climbing Chicago Center
Thu 11:37:36 PM 41.6269 -91.3194 96° East 404 465 37,000 400 Climbing Chicago Center
Thu 11:38:36 PM 41.6150 -91.1664 96° East 409 471 37,000  Level Chicago Center
Thu 11:39:36 PM 41.6050 -90.9994 95° East 422 486 37,000  Level Chicago Center
Thu 11:40:36 PM 41.5883 -90.8325 98° East 441 507 37,000  Level Chicago Center
Thu 11:41:36 PM 41.5758 -90.6739 96° East 466 536 37,000  Level Chicago Center
Thu 11:42:36 PM 41.5608 -90.5069 97° East 466 536 37,000  Level Chicago Center
Thu 11:43:36 PM 41.5458 -90.3319 96° East 466 536 37,000  Level Chicago Center
Thu 11:44:36 PM 41.5286 -90.1375 97° East 466 536 37,000  Level Chicago Center
Thu 11:45:36 PM 41.5150 -89.9628 96° East 466 536 37,000  Level Chicago Center
Thu 11:46:36 PM 41.4992 -89.7908 97° East 466 536 37,000  Level Chicago Center
Thu 11:47:36 PM 41.4831 -89.6133 97° East 466 536 37,000  Level Chicago Center
Thu 11:48:36 PM 41.4667 -89.4386 97° East 466 536 37,000  Level Chicago Center
Thu 11:49:36 PM 41.4478 -89.2639 98° East 466 536 37,000  Level Chicago Center
Thu 11:50:36 PM 41.4331 -89.1117 97° East 466 536 37,000  Level Chicago Center
Thu 11:51:36 PM 41.4158 -88.9375 97° East 466 536 37,000  Level Chicago Center
Thu 11:52:36 PM 41.3964 -88.7631 98° East 466 536 37,000 -50 Level Chicago Center
Thu 11:53:36 PM 41.3786 -88.5889 98° East 466 536 36,900 -800 Descending Chicago Center
Thu 11:54:36 PM 41.3606 -88.4122 98° East 471 542 35,400 -1,550 Descending Chicago Center
Thu 11:55:36 PM 41.3425 -88.2408 98° East 471 542 33,800 -1,587 Descending Chicago Center
Thu 11:56:37 PM 41.3219 -88.0725 99° East 464 534 32,200 -1,800 Descending Chicago Center
Thu 11:57:36 PM 41.3050 -87.8878 97° East 464 534 30,200 -1,916 Descending Chicago Center
Thu 11:58:36 PM 41.2861 -87.7250 99° East 458 527 28,400 -1,750 Descending Chicago Center
Thu 11:59:36 PM 41.2692 -87.5653 98° East 446 513 26,700 -1,750 Descending Chicago Center
Fri 12:00:36 AM 41.2519 -87.4056 98° East 446 513 24,900 -1,350 Descending Chicago Center
Fri 12:01:36 AM 41.2347 -87.2486 98° East 441 507 24,000 -450 Descending Chicago Center
Fri 12:02:36 AM 41.2192 -87.0944 98° East 430 495 24,000 -150 Level Chicago Center
Fri 12:03:36 AM 41.1994 -86.9406 100° East 424 488 23,700 -1,000 Descending Chicago Center
Fri 12:04:36 AM 41.1814 -86.7842 99° East 429 494 22,000 -1,650 Descending Chicago Center
Fri 12:05:36 AM 41.1636 -86.6469 100° East 429 494 20,400 -1,650 Descending Chicago Center
Fri 12:06:36 AM 41.1433 -86.5014 100° East 413 475 18,700 -1,600 Descending Chicago Center
Fri 12:07:36 AM 41.1278 -86.3725 99° East 384 442 17,200 -1,700 Descending Chicago Center
Fri 12:08:36 AM 41.1117 -86.2467 100° East 361 415 15,300 -1,900 Descending Chicago Center
Fri 12:09:36 AM 41.0981 -86.1286 99° East 336 387 13,400 -1,900 Descending Chicago Center
Fri 12:10:36 AM 41.0822 -86.0083 100° East 323 372 11,500 -1,884 Descending Chicago Center
Fri 12:11:37 AM 41.0706 -85.8986 98° East 313 360 9,600 -1,850 Descending Chicago Center
Fri 12:12:36 AM 41.0567 -85.7864 99° East 313 360 7,800 -1,866 Descending Chicago Center
Fri 12:13:36 AM 41.0431 -85.6853 100° East 300 345 5,900 -1,934 Descending Chicago Center
Fri 12:14:37 AM 41.0294 -85.5897 101° East 280 322 3,900 -1,850 Descending Chicago Center
Fri 12:15:36 AM 41.0281 -85.4878 91° East 274 315 2,200 -1,729 Descending Chicago Center
Fri 12:17:00 AM 40.9886 -85.2868 101° East  Level FlightAware Approximate
Fri 12:24:00 AM 40.9785 -85.1952 108° East  Level Estimated
Fri 12:25:00 AM 40.9785 -85.1952 108° East  Level Estimated
Fri 12:26:00 AM 40.9785 -85.1952 108° East  Level Estimated
Fri 12:27:00 AM 40.9785 -85.1952 108° East  Level Estimated
Fri 12:28:00 AM 40.9785 -85.1952 108° East  Level Estimated

Login

Don't have an account? Register now (free) for customized features, flight alerts, and more!